sensor_id;sensor_type;location;lat;lon;timestamp;pressure;altitude;pressure_sealevel;temperature;humidity
42603;BME280;28233;55.748;48.752;2023-05-12T00:00:00;99415.66;;;9.80;66.87
42603;BME280;28233;55.748;48.752;2023-05-12T00:02:08;99419.84;;;9.78;66.90
42603;BME280;28233;55.748;48.752;2023-05-12T00:04:11;99409.19;;;9.76;66.96
42603;BME280;28233;55.748;48.752;2023-05-12T00:06:14;99409.81;;;9.73;66.90
42603;BME280;28233;55.748;48.752;2023-05-12T00:08:17;99413.69;;;9.72;66.80
42603;BME280;28233;55.748;48.752;2023-05-12T00:10:19;99409.16;;;9.67;66.94
42603;BME280;28233;55.748;48.752;2023-05-12T00:12:22;99407.53;;;9.66;67.05
42603;BME280;28233;55.748;48.752;2023-05-12T00:14:25;99408.69;;;9.65;66.69
42603;BME280;28233;55.748;48.752;2023-05-12T00:16:28;99407.88;;;9.65;66.74
42603;BME280;28233;55.748;48.752;2023-05-12T00:18:31;99403.00;;;9.62;66.94
42603;BME280;28233;55.748;48.752;2023-05-12T00:20:34;99401.09;;;9.62;66.96
42603;BME280;28233;55.748;48.752;2023-05-12T00:22:38;99405.28;;;9.60;67.14
42603;BME280;28233;55.748;48.752;2023-05-12T00:24:41;99397.66;;;9.57;67.27
42603;BME280;28233;55.748;48.752;2023-05-12T00:26:43;99397.50;;;9.53;67.38
42603;BME280;28233;55.748;48.752;2023-05-12T00:28:46;99398.94;;;9.50;67.15
42603;BME280;28233;55.748;48.752;2023-05-12T00:30:50;99399.56;;;9.47;67.46
42603;BME280;28233;55.748;48.752;2023-05-12T00:32:52;99395.03;;;9.43;67.60
42603;BME280;28233;55.748;48.752;2023-05-12T00:34:55;99405.84;;;9.39;67.91
42603;BME280;28233;55.748;48.752;2023-05-12T00:36:58;99399.06;;;9.37;68.18
42603;BME280;28233;55.748;48.752;2023-05-12T00:39:01;99401.31;;;9.35;68.07
42603;BME280;28233;55.748;48.752;2023-05-12T00:41:05;99389.84;;;9.32;68.15
42603;BME280;28233;55.748;48.752;2023-05-12T00:43:08;99403.56;;;9.32;68.22
42603;BME280;28233;55.748;48.752;2023-05-12T00:45:11;99403.06;;;9.30;68.53
42603;BME280;28233;55.748;48.752;2023-05-12T00:47:14;99394.81;;;9.30;68.38
42603;BME280;28233;55.748;48.752;2023-05-12T00:49:18;99395.97;;;9.29;68.36
42603;BME280;28233;55.748;48.752;2023-05-12T00:51:22;99399.00;;;9.28;68.54
42603;BME280;28233;55.748;48.752;2023-05-12T00:53:25;99395.78;;;9.26;68.22
42603;BME280;28233;55.748;48.752;2023-05-12T00:55:36;99396.13;;;9.24;68.36
42603;BME280;28233;55.748;48.752;2023-05-12T00:57:40;99394.97;;;9.25;68.46
42603;BME280;28233;55.748;48.752;2023-05-12T00:59:42;99396.56;;;9.26;68.35
42603;BME280;28233;55.748;48.752;2023-05-12T01:01:47;99395.28;;;9.24;68.37
42603;BME280;28233;55.748;48.752;2023-05-12T01:03:51;99399.66;;;9.25;68.57
42603;BME280;28233;55.748;48.752;2023-05-12T01:06:03;99393.38;;;9.24;68.27
42603;BME280;28233;55.748;48.752;2023-05-12T01:08:07;99403.50;;;9.24;68.50
42603;BME280;28233;55.748;48.752;2023-05-12T01:10:20;99405.94;;;9.25;68.87
42603;BME280;28233;55.748;48.752;2023-05-12T01:12:24;99393.97;;;9.21;68.67
42603;BME280;28233;55.748;48.752;2023-05-12T01:14:27;99393.69;;;9.23;69.07
42603;BME280;28233;55.748;48.752;2023-05-12T01:16:34;99384.78;;;9.17;69.09
42603;BME280;28233;55.748;48.752;2023-05-12T01:18:39;99389.63;;;9.20;69.28
42603;BME280;28233;55.748;48.752;2023-05-12T01:20:45;99392.88;;;9.22;69.14
42603;BME280;28233;55.748;48.752;2023-05-12T01:22:49;99391.25;;;9.21;69.48
42603;BME280;28233;55.748;48.752;2023-05-12T01:24:54;99386.25;;;9.23;69.33
42603;BME280;28233;55.748;48.752;2023-05-12T01:26:59;99382.06;;;9.26;69.48
42603;BME280;28233;55.748;48.752;2023-05-12T01:29:02;99392.22;;;9.25;69.78
42603;BME280;28233;55.748;48.752;2023-05-12T01:31:07;99388.03;;;9.28;69.33
42603;BME280;28233;55.748;48.752;2023-05-12T01:33:11;99382.56;;;9.28;69.76
42603;BME280;28233;55.748;48.752;2023-05-12T01:35:14;99373.03;;;9.25;69.71
42603;BME280;28233;55.748;48.752;2023-05-12T01:37:17;99391.47;;;9.34;69.78
42603;BME280;28233;55.748;48.752;2023-05-12T01:39:19;99383.72;;;9.36;69.84
42603;BME280;28233;55.748;48.752;2023-05-12T01:41:22;99385.84;;;9.39;69.68
42603;BME280;28233;55.748;48.752;2023-05-12T01:43:25;99386.81;;;9.43;69.35
42603;BME280;28233;55.748;48.752;2023-05-12T01:45:27;99373.59;;;9.45;69.87
42603;BME280;28233;55.748;48.752;2023-05-12T01:47:30;99385.25;;;9.50;69.47
42603;BME280;28233;55.748;48.752;2023-05-12T01:49:33;99377.50;;;9.52;69.43
42603;BME280;28233;55.748;48.752;2023-05-12T01:51:35;99379.59;;;9.56;69.50
42603;BME280;28233;55.748;48.752;2023-05-12T01:53:38;99379.44;;;9.61;69.32
42603;BME280;28233;55.748;48.752;2023-05-12T01:55:41;99376.06;;;9.64;69.11
42603;BME280;28233;55.748;48.752;2023-05-12T01:57:44;99378.50;;;9.65;69.05
42603;BME280;28233;55.748;48.752;2023-05-12T01:59:47;99380.28;;;9.70;68.91
42603;BME280;28233;55.748;48.752;2023-05-12T02:01:49;99383.69;;;9.76;68.73
42603;BME280;28233;55.748;48.752;2023-05-12T02:03:52;99382.56;;;9.77;68.68
42603;BME280;28233;55.748;48.752;2023-05-12T02:05:55;99377.41;;;9.84;68.81
42603;BME280;28233;55.748;48.752;2023-05-12T02:07:58;99379.50;;;9.87;68.27
42603;BME280;28233;55.748;48.752;2023-05-12T02:10:00;99380.50;;;9.91;68.26
42603;BME280;28233;55.748;48.752;2023-05-12T02:12:06;99374.03;;;9.95;67.99
42603;BME280;28233;55.748;48.752;2023-05-12T02:14:09;99374.19;;;9.99;68.05
42603;BME280;28233;55.748;48.752;2023-05-12T02:16:12;99368.06;;;10.02;67.79
42603;BME280;28233;55.748;48.752;2023-05-12T02:18:15;99371.47;;;10.08;67.19
42603;BME280;28233;55.748;48.752;2023-05-12T02:20:18;99365.00;;;10.12;67.36
42603;BME280;28233;55.748;48.752;2023-05-12T02:22:21;99370.19;;;10.14;66.97
42603;BME280;28233;55.748;48.752;2023-05-12T02:24:24;99371.97;;;10.19;67.01
42603;BME280;28233;55.748;48.752;2023-05-12T02:26:26;99361.78;;;10.19;66.88
42603;BME280;28233;55.748;48.752;2023-05-12T02:28:29;99369.19;;;10.27;67.00
42603;BME280;28233;55.748;48.752;2023-05-12T02:30:32;99365.50;;;10.32;66.60
42603;BME280;28233;55.748;48.752;2023-05-12T02:32:34;99363.75;;;10.36;66.24
42603;BME280;28233;55.748;48.752;2023-05-12T02:34:37;99361.97;;;10.40;66.17
42603;BME280;28233;55.748;48.752;2023-05-12T02:36:40;99362.09;;;10.44;66.20
42603;BME280;28233;55.748;48.752;2023-05-12T02:38:43;99362.28;;;10.47;66.11
42603;BME280;28233;55.748;48.752;2023-05-12T02:40:45;99356.94;;;10.51;65.98
42603;BME280;28233;55.748;48.752;2023-05-12T02:42:49;99354.34;;;10.54;65.61
42603;BME280;28233;55.748;48.752;2023-05-12T02:44:51;99360.47;;;10.60;65.61
42603;BME280;28233;55.748;48.752;2023-05-12T02:46:54;99370.50;;;10.65;65.31
42603;BME280;28233;55.748;48.752;2023-05-12T02:48:59;99358.53;;;10.69;65.70
42603;BME280;28233;55.748;48.752;2023-05-12T02:51:02;99359.19;;;10.75;65.07
42603;BME280;28233;55.748;48.752;2023-05-12T02:53:04;99359.31;;;10.78;64.81
42603;BME280;28233;55.748;48.752;2023-05-12T02:55:07;99351.22;;;10.82;64.24
42603;BME280;28233;55.748;48.752;2023-05-12T02:57:10;99354.91;;;10.86;64.03
42603;BME280;28233;55.748;48.752;2023-05-12T02:59:13;99350.38;;;10.90;64.13
42603;BME280;28233;55.748;48.752;2023-05-12T03:01:15;99348.28;;;10.96;64.23
42603;BME280;28233;55.748;48.752;2023-05-12T03:03:18;99343.72;;;11.00;64.10
42603;BME280;28233;55.748;48.752;2023-05-12T03:05:21;99346.63;;;11.04;63.86
42603;BME280;28233;55.748;48.752;2023-05-12T03:07:24;99355.50;;;11.09;62.99
42603;BME280;28233;55.748;48.752;2023-05-12T03:09:27;99349.00;;;11.14;63.08
42603;BME280;28233;55.748;48.752;2023-05-12T03:11:30;99351.56;;;11.19;63.40
42603;BME280;28233;55.748;48.752;2023-05-12T03:13:32;99346.56;;;11.21;63.17
42603;BME280;28233;55.748;48.752;2023-05-12T03:15:35;99342.50;;;11.27;62.63
42603;BME280;28233;55.748;48.752;2023-05-12T03:17:38;99349.28;;;11.30;62.33
42603;BME280;28233;55.748;48.752;2023-05-12T03:19:41;99344.25;;;11.32;62.50
42603;BME280;28233;55.748;48.752;2023-05-12T03:21:43;99346.81;;;11.37;62.68
42603;BME280;28233;55.748;48.752;2023-05-12T03:23:46;99351.31;;;11.41;62.11
42603;BME280;28233;55.748;48.752;2023-05-12T03:25:49;99342.88;;;11.47;61.57
42603;BME280;28233;55.748;48.752;2023-05-12T03:27:51;99341.09;;;11.51;61.44
42603;BME280;28233;55.748;48.752;2023-05-12T03:29:54;99341.69;;;11.56;61.55
42603;BME280;28233;55.748;48.752;2023-05-12T03:31:57;99350.56;;;11.62;60.75
42603;BME280;28233;55.748;48.752;2023-05-12T03:34:00;99338.56;;;11.67;60.34
42603;BME280;28233;55.748;48.752;2023-05-12T03:36:03;99341.13;;;11.72;60.57
42603;BME280;28233;55.748;48.752;2023-05-12T03:38:06;99351.59;;;11.78;60.36
42603;BME280;28233;55.748;48.752;2023-05-12T03:40:09;99339.44;;;11.79;59.86
42603;BME280;28233;55.748;48.752;2023-05-12T03:42:13;99342.19;;;11.88;59.23
42603;BME280;28233;55.748;48.752;2023-05-12T03:44:15;99336.47;;;11.93;59.58
42603;BME280;28233;55.748;48.752;2023-05-12T03:46:18;99336.25;;;11.98;60.39
42603;BME280;28233;55.748;48.752;2023-05-12T03:48:22;99337.00;;;12.08;59.10
42603;BME280;28233;55.748;48.752;2023-05-12T03:50:25;99336.78;;;12.13;59.48
42603;BME280;28233;55.748;48.752;2023-05-12T03:52:27;99330.75;;;12.19;59.34
42603;BME280;28233;55.748;48.752;2023-05-12T03:54:30;99331.00;;;12.26;59.01
42603;BME280;28233;55.748;48.752;2023-05-12T03:56:33;99340.00;;;12.36;60.17
42603;BME280;28233;55.748;48.752;2023-05-12T03:58:36;99333.59;;;12.44;59.33
42603;BME280;28233;55.748;48.752;2023-05-12T04:00:38;99334.69;;;12.52;58.73
42603;BME280;28233;55.748;48.752;2023-05-12T04:02:41;99334.78;;;12.55;57.89
42603;BME280;28233;55.748;48.752;2023-05-12T04:04:44;99332.97;;;12.59;57.79
42603;BME280;28233;55.748;48.752;2023-05-12T04:06:47;99327.94;;;12.61;58.20
42603;BME280;28233;55.748;48.752;2023-05-12T04:08:50;99330.59;;;12.70;59.90
42603;BME280;28233;55.748;48.752;2023-05-12T04:10:57;99328.44;;;12.76;61.13
42603;BME280;28233;55.748;48.752;2023-05-12T04:13:00;99325.91;;;12.83;61.01
42603;BME280;28233;55.748;48.752;2023-05-12T04:15:04;99315.94;;;12.90;59.27
42603;BME280;28233;55.748;48.752;2023-05-12T04:17:07;99324.44;;;12.98;59.24
42603;BME280;28233;55.748;48.752;2023-05-12T04:19:10;99323.53;;;13.06;58.99
42603;BME280;28233;55.748;48.752;2023-05-12T04:21:13;99324.13;;;13.11;58.02
42603;BME280;28233;55.748;48.752;2023-05-12T04:23:16;99326.22;;;13.15;57.75
42603;BME280;28233;55.748;48.752;2023-05-12T04:25:18;99325.16;;;13.19;57.41
42603;BME280;28233;55.748;48.752;2023-05-12T04:27:21;99323.00;;;13.25;56.38
42603;BME280;28233;55.748;48.752;2023-05-12T04:29:24;99328.75;;;13.32;56.18
42603;BME280;28233;55.748;48.752;2023-05-12T04:31:27;99325.22;;;13.31;56.80
42603;BME280;28233;55.748;48.752;2023-05-12T04:33:30;99321.97;;;13.42;57.78
42603;BME280;28233;55.748;48.752;2023-05-12T04:35:33;99323.81;;;13.50;58.23
42603;BME280;28233;55.748;48.752;2023-05-12T04:37:36;99327.94;;;13.56;57.13
42603;BME280;28233;55.748;48.752;2023-05-12T04:39:39;99328.16;;;13.63;57.57
42603;BME280;28233;55.748;48.752;2023-05-12T04:41:41;99322.88;;;13.70;57.09
42603;BME280;28233;55.748;48.752;2023-05-12T04:43:44;99330.09;;;13.75;56.02
42603;BME280;28233;55.748;48.752;2023-05-12T04:45:50;99324.34;;;13.80;54.93
42603;BME280;28233;55.748;48.752;2023-05-12T04:47:53;99322.16;;;13.86;54.87
42603;BME280;28233;55.748;48.752;2023-05-12T04:49:55;99322.25;;;13.89;55.17
42603;BME280;28233;55.748;48.752;2023-05-12T04:51:58;99317.78;;;13.97;54.83
42603;BME280;28233;55.748;48.752;2023-05-12T04:54:01;99320.63;;;14.01;54.83
42603;BME280;28233;55.748;48.752;2023-05-12T04:56:04;99320.84;;;14.08;54.54
42603;BME280;28233;55.748;48.752;2023-05-12T04:58:07;99314.25;;;14.12;54.19
42603;BME280;28233;55.748;48.752;2023-05-12T05:00:10;99314.81;;;14.18;53.55
42603;BME280;28233;55.748;48.752;2023-05-12T05:02:13;99311.44;;;14.25;54.07
42603;BME280;28233;55.748;48.752;2023-05-12T05:04:16;99318.34;;;14.31;53.68
42603;BME280;28233;55.748;48.752;2023-05-12T05:06:19;99313.81;;;14.38;53.61
42603;BME280;28233;55.748;48.752;2023-05-12T05:08:22;99317.22;;;14.48;53.64
42603;BME280;28233;55.748;48.752;2023-05-12T05:10:24;99309.16;;;14.55;53.31
42603;BME280;28233;55.748;48.752;2023-05-12T05:12:27;99313.72;;;14.63;52.48
42603;BME280;28233;55.748;48.752;2023-05-12T05:14:30;99312.75;;;14.71;51.92
42603;BME280;28233;55.748;48.752;2023-05-12T05:16:32;99311.81;;;14.79;52.59
42603;BME280;28233;55.748;48.752;2023-05-12T05:18:35;99304.03;;;14.85;52.60
42603;BME280;28233;55.748;48.752;2023-05-12T05:20:39;99302.69;;;14.95;53.03
42603;BME280;28233;55.748;48.752;2023-05-12T05:22:46;99301.72;;;15.03;51.07
42603;BME280;28233;55.748;48.752;2023-05-12T05:24:49;99306.72;;;15.13;51.53
42603;BME280;28233;55.748;48.752;2023-05-12T05:26:53;99295.75;;;15.17;48.89
42603;BME280;28233;55.748;48.752;2023-05-12T05:28:56;99301.97;;;15.30;50.64
42603;BME280;28233;55.748;48.752;2023-05-12T05:30:58;99306.44;;;15.34;48.73
42603;BME280;28233;55.748;48.752;2023-05-12T05:33:02;99300.97;;;15.38;48.21
42603;BME280;28233;55.748;48.752;2023-05-12T05:35:05;99296.44;;;15.46;49.38
42603;BME280;28233;55.748;48.752;2023-05-12T05:37:09;99293.44;;;15.54;48.76
42603;BME280;28233;55.748;48.752;2023-05-12T05:39:12;99284.88;;;15.59;47.65
42603;BME280;28233;55.748;48.752;2023-05-12T05:41:15;99282.53;;;15.61;47.54
42603;BME280;28233;55.748;48.752;2023-05-12T05:43:18;99295.84;;;15.72;48.03
42603;BME280;28233;55.748;48.752;2023-05-12T05:45:20;99286.09;;;15.78;47.83
42603;BME280;28233;55.748;48.752;2023-05-12T05:47:23;99297.41;;;15.89;47.25
42603;BME280;28233;55.748;48.752;2023-05-12T05:49:26;99287.22;;;15.93;46.02
42603;BME280;28233;55.748;48.752;2023-05-12T05:51:29;99289.75;;;16.01;45.69
42603;BME280;28233;55.748;48.752;2023-05-12T05:53:32;99292.25;;;16.06;46.35
42603;BME280;28233;55.748;48.752;2023-05-12T05:55:34;99280.44;;;16.10;45.93
42603;BME280;28233;55.748;48.752;2023-05-12T05:57:37;99290.88;;;16.16;44.93
42603;BME280;28233;55.748;48.752;2023-05-12T05:59:40;99275.38;;;16.15;44.84
42603;BME280;28233;55.748;48.752;2023-05-12T06:01:43;99275.63;;;16.26;45.13
42603;BME280;28233;55.748;48.752;2023-05-12T06:03:47;99282.09;;;16.34;44.08
42603;BME280;28233;55.748;48.752;2023-05-12T06:05:49;99284.50;;;16.35;42.50
42603;BME280;28233;55.748;48.752;2023-05-12T06:07:52;99272.75;;;16.42;42.43
42603;BME280;28233;55.748;48.752;2023-05-12T06:09:55;99269.75;;;16.51;43.26
42603;BME280;28233;55.748;48.752;2023-05-12T06:12:00;99279.81;;;16.59;41.89
42603;BME280;28233;55.748;48.752;2023-05-12T06:14:03;99271.19;;;16.64;41.25
42603;BME280;28233;55.748;48.752;2023-05-12T06:16:05;99273.28;;;16.70;42.09
42603;BME280;28233;55.748;48.752;2023-05-12T06:18:08;99254.78;;;16.78;41.64
42603;BME280;28233;55.748;48.752;2023-05-12T06:20:11;99261.66;;;16.84;42.01
42603;BME280;28233;55.748;48.752;2023-05-12T06:22:14;99257.78;;;16.89;42.42
42603;BME280;28233;55.748;48.752;2023-05-12T06:24:17;99250.72;;;16.95;42.38
42603;BME280;28233;55.748;48.752;2023-05-12T06:26:20;99255.25;;;17.03;42.68
42603;BME280;28233;55.748;48.752;2023-05-12T06:28:23;99254.56;;;17.10;42.89
42603;BME280;28233;55.748;48.752;2023-05-12T06:30:26;99251.47;;;17.15;42.38
42603;BME280;28233;55.748;48.752;2023-05-12T06:32:29;99259.53;;;17.24;41.64
42603;BME280;28233;55.748;48.752;2023-05-12T06:34:32;99260.03;;;17.29;40.91
42603;BME280;28233;55.748;48.752;2023-05-12T06:36:35;99264.03;;;17.32;39.44
42603;BME280;28233;55.748;48.752;2023-05-12T06:38:38;99256.91;;;17.35;39.46
42603;BME280;28233;55.748;48.752;2023-05-12T06:40:41;99253.38;;;17.38;40.58
42603;BME280;28233;55.748;48.752;2023-05-12T06:42:43;99248.38;;;17.47;40.49
42603;BME280;28233;55.748;48.752;2023-05-12T06:44:46;99245.75;;;17.58;40.32
42603;BME280;28233;55.748;48.752;2023-05-12T06:46:49;99248.66;;;17.68;40.74
42603;BME280;28233;55.748;48.752;2023-05-12T06:48:51;99247.59;;;17.77;40.30
42603;BME280;28233;55.748;48.752;2023-05-12T06:50:56;99236.50;;;17.80;40.21
42603;BME280;28233;55.748;48.752;2023-05-12T06:52:59;99239.00;;;17.85;40.33
42603;BME280;28233;55.748;48.752;2023-05-12T06:55:02;99246.63;;;17.92;40.36
42603;BME280;28233;55.748;48.752;2023-05-12T06:57:06;99235.19;;;17.97;40.75
42603;BME280;28233;55.748;48.752;2023-05-12T06:59:09;99249.53;;;18.03;39.64
42603;BME280;28233;55.748;48.752;2023-05-12T07:01:12;99240.75;;;17.97;39.28
42603;BME280;28233;55.748;48.752;2023-05-12T07:03:15;99233.53;;;17.92;38.42
42603;BME280;28233;55.748;48.752;2023-05-12T07:05:18;99230.41;;;17.98;39.24
42603;BME280;28233;55.748;48.752;2023-05-12T07:07:21;99228.94;;;18.07;40.46
42603;BME280;28233;55.748;48.752;2023-05-12T07:09:24;99216.75;;;18.15;38.91
42603;BME280;28233;55.748;48.752;2023-05-12T07:11:26;99220.84;;;18.29;40.71
42603;BME280;28233;55.748;48.752;2023-05-12T07:13:29;99226.06;;;18.34;38.17
42603;BME280;28233;55.748;48.752;2023-05-12T07:15:32;99213.72;;;18.31;37.82
42603;BME280;28233;55.748;48.752;2023-05-12T07:17:35;99221.69;;;18.36;38.49
42603;BME280;28233;55.748;48.752;2023-05-12T07:19:38;99213.00;;;18.38;38.51
42603;BME280;28233;55.748;48.752;2023-05-12T07:21:42;99218.63;;;18.45;38.20
42603;BME280;28233;55.748;48.752;2023-05-12T07:23:45;99204.72;;;18.45;38.17
42603;BME280;28233;55.748;48.752;2023-05-12T07:25:48;99217.47;;;18.46;37.59
42603;BME280;28233;55.748;48.752;2023-05-12T07:27:50;99210.25;;;18.42;37.11
42603;BME280;28233;55.748;48.752;2023-05-12T07:29:53;99208.63;;;18.37;38.08
42603;BME280;28233;55.748;48.752;2023-05-12T07:31:56;99204.72;;;18.45;37.20
42603;BME280;28233;55.748;48.752;2023-05-12T07:33:59;99205.91;;;18.44;36.88
42603;BME280;28233;55.748;48.752;2023-05-12T07:36:02;99209.44;;;18.41;36.23
42603;BME280;28233;55.748;48.752;2023-05-12T07:38:06;99211.19;;;18.56;36.80
42603;BME280;28233;55.748;48.752;2023-05-12T07:40:11;99196.91;;;18.62;37.04
42603;BME280;28233;55.748;48.752;2023-05-12T07:42:14;99197.41;;;18.71;36.54
42603;BME280;28233;55.748;48.752;2023-05-12T07:44:17;99193.91;;;18.77;36.15
42603;BME280;28233;55.748;48.752;2023-05-12T07:46:19;99195.81;;;18.73;36.54
42603;BME280;28233;55.748;48.752;2023-05-12T07:48:22;99201.53;;;18.84;37.50
42603;BME280;28233;55.748;48.752;2023-05-12T07:50:25;99202.00;;;18.93;37.35
42603;BME280;28233;55.748;48.752;2023-05-12T07:52:28;99194.13;;;19.03;37.87
42603;BME280;28233;55.748;48.752;2023-05-12T07:54:30;99194.13;;;19.03;35.53
42603;BME280;28233;55.748;48.752;2023-05-12T07:56:33;99187.78;;;19.09;35.86
42603;BME280;28233;55.748;48.752;2023-05-12T07:58:36;99199.84;;;19.24;36.07
42603;BME280;28233;55.748;48.752;2023-05-12T08:00:39;99186.75;;;19.32;35.17
42603;BME280;28233;55.748;48.752;2023-05-12T08:02:42;99189.59;;;19.42;35.77
42603;BME280;28233;55.748;48.752;2023-05-12T08:04:45;99188.03;;;19.49;36.39
42603;BME280;28233;55.748;48.752;2023-05-12T08:06:48;99193.50;;;19.34;35.42
42603;BME280;28233;55.748;48.752;2023-05-12T08:08:51;99190.19;;;19.11;34.72
42603;BME280;28233;55.748;48.752;2023-05-12T08:10:53;99186.50;;;18.96;35.10
42603;BME280;28233;55.748;48.752;2023-05-12T08:12:56;99181.69;;;18.93;35.52
42603;BME280;28233;55.748;48.752;2023-05-12T08:14:59;99178.63;;;19.09;35.70
42603;BME280;28233;55.748;48.752;2023-05-12T08:17:07;99169.06;;;19.03;34.54
42603;BME280;28233;55.748;48.752;2023-05-12T08:19:11;99178.75;;;18.75;33.99
42603;BME280;28233;55.748;48.752;2023-05-12T08:21:14;99171.16;;;18.72;34.12
42603;BME280;28233;55.748;48.752;2023-05-12T08:23:17;99173.13;;;18.68;34.38
42603;BME280;28233;55.748;48.752;2023-05-12T08:25:20;99168.06;;;18.77;34.66
42603;BME280;28233;55.748;48.752;2023-05-12T08:27:23;99172.19;;;18.97;35.59
42603;BME280;28233;55.748;48.752;2023-05-12T08:29:27;99166.75;;;19.19;35.14
42603;BME280;28233;55.748;48.752;2023-05-12T08:31:30;99161.75;;;19.42;35.50
42603;BME280;28233;55.748;48.752;2023-05-12T08:33:34;99152.25;;;19.58;35.77
42603;BME280;28233;55.748;48.752;2023-05-12T08:35:37;99163.53;;;19.83;35.97
42603;BME280;28233;55.748;48.752;2023-05-12T08:37:42;99160.00;;;20.04;33.58
42603;BME280;28233;55.748;48.752;2023-05-12T08:39:45;99152.06;;;20.13;33.36
42603;BME280;28233;55.748;48.752;2023-05-12T08:41:56;99147.28;;;20.17;33.59
42603;BME280;28233;55.748;48.752;2023-05-12T08:44:01;99146.09;;;20.11;33.91
42603;BME280;28233;55.748;48.752;2023-05-12T08:46:05;99161.59;;;19.94;33.33
42603;BME280;28233;55.748;48.752;2023-05-12T08:48:09;99150.69;;;19.68;32.80
42603;BME280;28233;55.748;48.752;2023-05-12T08:50:13;99146.22;;;19.49;32.95
42603;BME280;28233;55.748;48.752;2023-05-12T08:52:18;99153.81;;;19.55;33.95
42603;BME280;28233;55.748;48.752;2023-05-12T08:54:26;99149.22;;;19.88;34.61
42603;BME280;28233;55.748;48.752;2023-05-12T08:56:29;99150.50;;;20.23;32.81
42603;BME280;28233;55.748;48.752;2023-05-12T08:58:36;99147.72;;;20.41;32.52
42603;BME280;28233;55.748;48.752;2023-05-12T09:00:43;99140.94;;;20.53;31.18
42603;BME280;28233;55.748;48.752;2023-05-12T09:02:47;99145.34;;;20.54;32.57
42603;BME280;28233;55.748;48.752;2023-05-12T09:04:56;99148.09;;;20.25;32.58
42603;BME280;28233;55.748;48.752;2023-05-12T09:06:58;99142.88;;;20.05;32.54
42603;BME280;28233;55.748;48.752;2023-05-12T09:09:02;99138.13;;;20.13;32.31
42603;BME280;28233;55.748;48.752;2023-05-12T09:11:05;99130.94;;;20.19;32.44
42603;BME280;28233;55.748;48.752;2023-05-12T09:13:35;99133.31;;;20.10;32.04
42603;BME280;28233;55.748;48.752;2023-05-12T09:15:42;99129.72;;;19.95;32.69
42603;BME280;28233;55.748;48.752;2023-05-12T09:17:46;99124.06;;;19.74;33.39
42603;BME280;28233;55.748;48.752;2023-05-12T09:19:48;99124.34;;;19.51;32.91
42603;BME280;28233;55.748;48.752;2023-05-12T09:21:51;99126.66;;;19.34;32.85
42603;BME280;28233;55.748;48.752;2023-05-12T09:26:00;99120.22;;;19.19;33.35
42603;BME280;28233;55.748;48.752;2023-05-12T09:28:03;99119.94;;;19.42;34.62
42603;BME280;28233;55.748;48.752;2023-05-12T09:30:07;99114.09;;;19.73;33.34
42603;BME280;28233;55.748;48.752;2023-05-12T09:32:10;99119.34;;;20.03;33.52
42603;BME280;28233;55.748;48.752;2023-05-12T09:34:13;99104.25;;;20.36;34.64
42603;BME280;28233;55.748;48.752;2023-05-12T09:36:22;99112.69;;;20.58;32.93
42603;BME280;28233;55.748;48.752;2023-05-12T09:38:26;99113.47;;;20.62;30.79
42603;BME280;28233;55.748;48.752;2023-05-12T09:40:28;99113.84;;;20.71;31.53
42603;BME280;28233;55.748;48.752;2023-05-12T09:42:33;99116.66;;;20.64;30.94
42603;BME280;28233;55.748;48.752;2023-05-12T09:44:38;99109.44;;;20.27;31.33
42603;BME280;28233;55.748;48.752;2023-05-12T09:46:42;99121.00;;;20.29;32.41
42603;BME280;28233;55.748;48.752;2023-05-12T09:48:46;99109.03;;;20.43;31.67
42603;BME280;28233;55.748;48.752;2023-05-12T09:50:50;99108.28;;;20.60;31.98
42603;BME280;28233;55.748;48.752;2023-05-12T09:52:53;99104.25;;;20.54;31.86
42603;BME280;28233;55.748;48.752;2023-05-12T09:54:56;99095.91;;;20.68;31.73
42603;BME280;28233;55.748;48.752;2023-05-12T09:57:06;99097.50;;;20.77;31.23
42603;BME280;28233;55.748;48.752;2023-05-12T09:59:12;99107.06;;;20.76;30.44
42603;BME280;28233;55.748;48.752;2023-05-12T10:01:17;99092.28;;;20.86;31.80
42603;BME280;28233;55.748;48.752;2023-05-12T10:03:27;99103.06;;;20.98;29.55
42603;BME280;28233;55.748;48.752;2023-05-12T10:05:32;99091.06;;;21.08;29.09
42603;BME280;28233;55.748;48.752;2023-05-12T10:07:36;99087.38;;;21.26;29.85
42603;BME280;28233;55.748;48.752;2023-05-12T10:09:41;99090.19;;;21.29;29.27
42603;BME280;28233;55.748;48.752;2023-05-12T10:11:44;99092.16;;;21.32;30.50
42603;BME280;28233;55.748;48.752;2023-05-12T10:13:48;99087.38;;;21.44;30.03
42603;BME280;28233;55.748;48.752;2023-05-12T10:15:54;99092.91;;;21.55;29.80
42603;BME280;28233;55.748;48.752;2023-05-12T10:17:58;99092.44;;;21.67;30.93
42603;BME280;28233;55.748;48.752;2023-05-12T10:20:03;99086.03;;;21.70;28.40
42603;BME280;28233;55.748;48.752;2023-05-12T10:22:10;99080.44;;;21.70;28.51
42603;BME280;28233;55.748;48.752;2023-05-12T10:24:13;99092.84;;;21.65;27.96
42603;BME280;28233;55.748;48.752;2023-05-12T10:26:18;99088.13;;;21.55;28.32
42603;BME280;28233;55.748;48.752;2023-05-12T10:28:21;99085.75;;;21.39;27.85
42603;BME280;28233;55.748;48.752;2023-05-12T10:30:24;99088.22;;;21.23;27.51
42603;BME280;28233;55.748;48.752;2023-05-12T10:32:27;99073.13;;;20.99;27.06
42603;BME280;28233;55.748;48.752;2023-05-12T10:34:35;99072.63;;;21.25;28.33
42603;BME280;28233;55.748;48.752;2023-05-12T10:36:42;99070.63;;;21.29;27.45
42603;BME280;28233;55.748;48.752;2023-05-12T10:38:47;99068.16;;;21.49;29.26
42603;BME280;28233;55.748;48.752;2023-05-12T10:40:58;99072.88;;;21.67;27.41
42603;BME280;28233;55.748;48.752;2023-05-12T10:43:03;99066.44;;;21.77;27.16
42603;BME280;28233;55.748;48.752;2023-05-12T10:45:18;99069.13;;;21.91;27.10
42603;BME280;28233;55.748;48.752;2023-05-12T10:47:34;99061.84;;;22.05;27.84
42603;BME280;28233;55.748;48.752;2023-05-12T10:49:40;99059.00;;;22.15;27.20